< Typhoon 201923 2019 Season Typhoon 201925 >
Typhoon 201924 (NAKRI)
General InformationTrack Information on Google MapsDetailed Wind InformationForecast History on Google MapsAccess Analytics MapList of All Images || NewsDisaster Info.WeblogTrackbackTyphoon FrontTwiphoonTyphoon Now!Typhoon ImaginationJMA Disaster Info. XMLResourceGoogle EarthGE AnimationAtom FeedGeoJSON
Detalied Best Track (Time Zone = UTC)
Year Month Day Hour Lat. Long. Pressure (hPa) Wind (kt) Class Image Chart
2019 11 4 00 12.7 113.7 1006 0 2 Image Chart
2019 11 4 06 13.3 114.0 1004 0 2 Image Chart
2019 11 4 12 13.4 114.2 1004 0 2 Image Chart
2019 11 4 18 13.5 114.4 1004 0 2 Image Chart
2019 11 5 00 13.6 114.8 1004 0 2 Image Chart
2019 11 5 06 13.7 115.3 1002 0 2 Image Chart
2019 11 5 12 13.7 115.8 1000 0 2 Image Chart
2019 11 5 18 13.5 116.0 998 35 3 Image Chart
2019 11 6 00 13.4 116.2 996 35 3 Image Chart
2019 11 6 06 13.2 116.4 994 40 3 Image Chart
2019 11 6 12 13.2 116.6 994 40 3 Image Chart
2019 11 6 18 13.3 116.8 992 45 3 Image Chart
2019 11 7 00 13.2 116.9 990 50 4 Image Chart
2019 11 7 06 13.0 117.0 985 55 4 Image Chart
2019 11 7 12 12.8 117.2 980 60 4 Image Chart
2019 11 7 18 12.6 117.0 980 60 4 Image Chart
2019 11 8 00 12.5 117.1 980 60 4 Image Chart
2019 11 8 06 12.6 116.4 975 65 5 Image Chart
2019 11 8 12 12.5 115.7 975 65 5 Image Chart
2019 11 8 18 12.5 115.3 980 60 4 Image Chart
2019 11 9 00 12.4 114.6 980 60 4 Image Chart
2019 11 9 06 12.4 113.7 980 60 4 Image Chart
2019 11 9 12 12.3 113.1 980 55 4 Image Chart
2019 11 9 18 12.4 112.4 985 55 4 Image Chart
2019 11 10 00 12.3 111.5 985 55 4 Image Chart
2019 11 10 06 12.5 110.8 985 55 4 Image Chart
2019 11 10 12 12.6 110.1 990 50 4 Image Chart
2019 11 10 18 12.8 109.5 996 40 3 Image Chart
2019 11 11 00 13.0 109.0 1002 0 2 Image Chart
2019 11 11 06 13.3 107.8 1006 0 2 Image Chart
Japan Meteorological Agency Best Track Data | Correction Date : 2020-01-09
< Typhoon 201923 2019 Season Typhoon 201925 >

Help